Terminal Aerodrome Forecast
Issued by NWS Twin Cities, MN

Home | Current Version | Previous Version | Text Only | Print | Product List | Glossary Off
Versions: 1 2 3 4 5 6 7 8 9 10 11 12 13 14 15 16 17 18 19

000
FTUS43 KMPX 242000 AAA
TAFSTC
TAF AMD
KSTC 242038Z 2421/2518 32017G26KT P6SM SCT019 OVC030
     FM250000 31016KT P6SM OVC025
     FM250400 30012KT P6SM SCT020
     FM251100 30005KT P6SM SCT120=

USA.gov is the U.S. government's official web portal to all federal, state and local government web resources and services.